createdAt,value
2018-09-26T00:01:05.514Z,89.40
2018-09-26T00:04:14.958Z,89.50
2018-09-26T00:07:19.431Z,88.00
2018-09-26T00:10:23.958Z,89.20
2018-09-26T00:13:29.240Z,89.40
2018-09-26T00:16:33.670Z,88.90
2018-09-26T00:19:38.123Z,88.90
2018-09-26T00:22:42.574Z,88.50
2018-09-26T00:25:47.045Z,89.10
2018-09-26T00:28:51.482Z,89.20
2018-09-26T00:31:55.911Z,88.80
2018-09-26T00:35:00.350Z,89.40
2018-09-26T00:38:04.810Z,88.80
2018-09-26T00:41:09.361Z,89.50
2018-09-26T00:44:13.829Z,88.90
2018-09-26T00:47:18.267Z,89.90
2018-09-26T00:50:22.735Z,90.00
2018-09-26T00:53:27.198Z,89.60
2018-09-26T00:56:31.641Z,89.80
2018-09-26T00:59:36.100Z,89.60
2018-09-26T01:02:40.518Z,89.80
2018-09-26T01:05:44.954Z,90.00
2018-09-26T01:08:51.450Z,90.00
2018-09-26T01:11:55.874Z,89.60
2018-09-26T01:15:00.341Z,90.10
2018-09-26T01:18:04.817Z,90.60
2018-09-26T01:21:09.342Z,90.50
2018-09-26T01:24:13.848Z,90.30
2018-09-26T01:27:18.269Z,90.40
2018-09-26T01:30:22.719Z,90.30
2018-09-26T01:33:27.142Z,90.20
2018-09-26T01:36:31.573Z,90.10
2018-09-26T01:39:36.029Z,89.90
2018-09-26T01:42:40.492Z,90.10
2018-09-26T01:45:44.941Z,90.30
2018-09-26T01:48:49.363Z,90.70
2018-09-26T01:51:53.815Z,90.60
2018-09-26T01:54:58.289Z,90.70
2018-09-26T01:58:02.707Z,90.80
2018-09-26T02:01:07.228Z,90.90
2018-09-26T02:04:11.652Z,90.50
2018-09-26T02:07:16.084Z,90.60
2018-09-26T02:10:20.519Z,90.70
2018-09-26T02:13:24.930Z,90.80
2018-09-26T02:16:29.362Z,90.70
2018-09-26T02:19:33.771Z,90.90
2018-09-26T02:22:38.201Z,91.00
2018-09-26T02:25:42.677Z,90.80
2018-09-26T02:28:47.075Z,90.70
2018-09-26T02:31:51.509Z,90.70
2018-09-26T02:34:55.926Z,90.90
2018-09-26T02:38:00.426Z,90.70
2018-09-26T02:41:04.874Z,90.80
2018-09-26T02:44:09.373Z,91.10
2018-09-26T02:47:13.899Z,90.90
2018-09-26T02:50:18.425Z,90.90
2018-09-26T02:53:22.951Z,91.00
2018-09-26T02:56:27.402Z,91.00
2018-09-26T02:59:31.830Z,90.70
2018-09-26T03:02:36.254Z,90.80
2018-09-26T03:05:40.679Z,91.40
2018-09-26T03:08:45.119Z,91.40
2018-09-26T03:11:49.579Z,90.90
2018-09-26T03:14:53.994Z,91.20
2018-09-26T03:17:58.423Z,91.30
2018-09-26T03:21:02.968Z,91.20
2018-09-26T03:24:07.462Z,91.30
2018-09-26T03:27:11.916Z,91.40
2018-09-26T03:30:16.355Z,90.90
2018-09-26T03:33:20.778Z,91.00
2018-09-26T03:36:25.188Z,91.70
2018-09-26T03:39:29.625Z,91.70
2018-09-26T03:42:34.091Z,91.50
2018-09-26T03:45:38.506Z,91.50
2018-09-26T03:48:42.984Z,91.50
2018-09-26T03:51:47.403Z,91.40
2018-09-26T03:54:51.826Z,91.40
2018-09-26T03:57:56.243Z,91.60
2018-09-26T04:01:00.667Z,91.90
2018-09-26T04:04:05.119Z,91.50
2018-09-26T04:07:09.581Z,91.70
2018-09-26T04:10:14.121Z,91.50
2018-09-26T04:13:18.575Z,91.30
2018-09-26T04:16:22.987Z,91.80
2018-09-26T04:19:27.423Z,91.50
2018-09-26T04:22:31.949Z,91.20
2018-09-26T04:25:36.390Z,91.20
2018-09-26T04:28:40.819Z,90.90
2018-09-26T04:31:45.235Z,91.30
2018-09-26T04:34:49.673Z,91.40
2018-09-26T04:37:54.092Z,91.40
2018-09-26T04:40:58.551Z,91.10
2018-09-26T04:44:02.967Z,91.30
2018-09-26T04:47:07.522Z,91.40
2018-09-26T04:50:11.955Z,91.30
2018-09-26T04:53:16.373Z,91.30
2018-09-26T04:56:20.815Z,91.30
2018-09-26T04:59:25.249Z,91.40
2018-09-26T05:02:29.684Z,91.50
2018-09-26T05:05:34.158Z,91.40
2018-09-26T05:08:38.594Z,91.70
2018-09-26T05:11:43.031Z,91.70
2018-09-26T05:14:47.620Z,91.50
2018-09-26T05:17:52.066Z,91.70
2018-09-26T05:20:56.612Z,91.50
2018-09-26T05:24:01.136Z,91.60
2018-09-26T05:27:05.572Z,91.70
2018-09-26T05:30:10.079Z,91.40
2018-09-26T05:33:14.742Z,92.00
2018-09-26T05:36:19.247Z,91.80
2018-09-26T05:39:23.716Z,91.80
2018-09-26T05:42:28.161Z,91.80
2018-09-26T05:45:32.589Z,91.80
2018-09-26T05:48:37.302Z,92.40
2018-09-26T05:51:41.778Z,91.90
2018-09-26T05:54:46.214Z,92.30
2018-09-26T05:57:50.633Z,92.80
2018-09-26T06:00:55.181Z,92.90
2018-09-26T06:03:59.586Z,92.60
2018-09-26T06:07:04.051Z,93.10
2018-09-26T06:10:08.515Z,92.80
2018-09-26T06:13:12.963Z,92.60
2018-09-26T06:16:17.425Z,90.40
2018-09-26T06:19:21.868Z,86.20
2018-09-26T06:22:26.563Z,81.00
2018-09-26T06:25:30.991Z,76.30
2018-09-26T06:28:35.462Z,71.10
2018-09-26T06:31:39.983Z,68.60
2018-09-26T06:34:44.419Z,66.50
2018-09-26T06:37:48.916Z,63.00
2018-09-26T06:40:53.386Z,60.90
2018-09-26T06:43:57.835Z,60.20
2018-09-26T06:47:02.291Z,60.70
2018-09-26T06:50:06.767Z,60.90
2018-09-26T06:53:11.225Z,60.60
2018-09-26T06:56:15.674Z,60.40
2018-09-26T06:59:20.115Z,61.10
2018-09-26T07:02:24.557Z,59.80
2018-09-26T07:05:29.003Z,58.00
2018-09-26T07:08:33.438Z,53.30
2018-09-26T07:11:37.883Z,53.90
2018-09-26T07:14:42.353Z,56.20
2018-09-26T07:17:46.792Z,59.90
2018-09-26T07:20:51.277Z,62.60
2018-09-26T07:23:55.832Z,64.30
2018-09-26T07:27:00.329Z,69.10
2018-09-26T07:30:04.783Z,70.60
2018-09-26T07:33:09.217Z,71.80
2018-09-26T07:36:13.674Z,70.70
2018-09-26T07:39:18.106Z,69.70
2018-09-26T07:42:22.654Z,72.50
2018-09-26T07:45:27.182Z,73.30
2018-09-26T07:48:31.634Z,73.10
2018-09-26T07:51:36.103Z,74.20
2018-09-26T07:54:40.530Z,74.30
2018-09-26T07:57:44.975Z,74.50
2018-09-26T08:00:49.435Z,75.00
2018-09-26T08:03:53.930Z,76.30
2018-09-26T08:06:58.522Z,75.40
2018-09-26T08:10:03.134Z,75.30
2018-09-26T08:13:07.607Z,75.20
2018-09-26T08:16:12.164Z,76.10
2018-09-26T08:19:16.636Z,74.00
2018-09-26T08:22:21.076Z,73.50
2018-09-26T08:25:25.499Z,73.90
2018-09-26T08:28:29.966Z,73.60
2018-09-26T08:31:34.426Z,72.40
2018-09-26T08:34:38.891Z,73.70
2018-09-26T08:37:43.334Z,71.10
2018-09-26T08:40:47.773Z,68.60
2018-09-26T08:43:52.299Z,67.70
2018-09-26T08:46:56.726Z,67.20
2018-09-26T08:50:01.155Z,66.60
2018-09-26T08:53:05.611Z,64.40
2018-09-26T08:56:10.054Z,66.70
2018-09-26T08:59:14.519Z,63.40
2018-09-26T09:02:18.967Z,64.00
2018-09-26T09:05:23.399Z,63.30
2018-09-26T09:08:27.846Z,64.90
2018-09-26T09:11:32.316Z,68.00
2018-09-26T09:14:36.888Z,66.40
2018-09-26T09:17:41.205Z,62.00
2018-09-26T09:20:45.692Z,61.70
2018-09-26T09:23:50.141Z,61.10
2018-09-26T09:26:54.586Z,58.30
2018-09-26T09:29:59.026Z,58.10
2018-09-26T09:33:03.463Z,55.50
2018-09-26T09:36:07.942Z,57.50
2018-09-26T09:39:12.389Z,54.90
2018-09-26T09:42:16.823Z,53.30
2018-09-26T09:45:21.758Z,54.40
2018-09-26T09:48:26.193Z,53.00
2018-09-26T09:51:30.632Z,52.80
2018-09-26T09:54:35.143Z,50.70
2018-09-26T09:57:39.548Z,51.90
2018-09-26T10:00:49.288Z,50.90
2018-09-26T10:03:53.770Z,51.60
2018-09-26T10:06:58.190Z,49.40
2018-09-26T10:10:02.630Z,50.80
2018-09-26T10:13:07.455Z,48.60
2018-09-26T10:16:11.982Z,48.50
2018-09-26T10:19:16.480Z,47.40
2018-09-26T10:22:20.913Z,48.00
2018-09-26T10:25:25.550Z,48.60
2018-09-26T10:28:29.975Z,45.80
2018-09-26T10:31:34.422Z,46.20
2018-09-26T10:34:38.871Z,46.30
2018-09-26T10:37:43.298Z,45.50
2018-09-26T10:40:47.789Z,46.60
2018-09-26T10:43:52.238Z,44.70
2018-09-26T10:46:56.683Z,46.20
2018-09-26T10:50:01.131Z,45.30
2018-09-26T10:53:05.635Z,44.90
2018-09-26T10:56:10.177Z,44.60
2018-09-26T10:59:14.530Z,44.30
2018-09-26T11:02:19.041Z,43.60
2018-09-26T11:05:23.516Z,44.70
2018-09-26T11:08:27.927Z,45.70
2018-09-26T11:11:32.370Z,43.80
2018-09-26T11:14:36.791Z,44.00
2018-09-26T11:17:41.227Z,44.00
2018-09-26T11:20:45.688Z,45.90
2018-09-26T11:23:50.131Z,42.60
2018-09-26T11:26:54.574Z,43.40
2018-09-26T11:29:59.019Z,43.50
2018-09-26T11:33:03.464Z,43.30
2018-09-26T11:36:08.110Z,44.20
2018-09-26T11:39:12.734Z,42.80
2018-09-26T11:42:17.197Z,41.50
2018-09-26T11:45:21.787Z,42.30
2018-09-26T11:48:26.230Z,41.30
2018-09-26T11:51:30.674Z,43.30
2018-09-26T11:54:35.098Z,43.20
2018-09-26T11:57:39.527Z,42.50
2018-09-26T12:00:43.954Z,42.50
2018-09-26T12:03:48.398Z,42.70
2018-09-26T12:06:52.900Z,42.00
2018-09-26T12:09:57.474Z,41.60
2018-09-26T12:13:01.975Z,41.40
2018-09-26T12:16:06.476Z,42.60
2018-09-26T12:19:10.878Z,43.80
2018-09-26T12:22:15.451Z,41.90
2018-09-26T12:25:19.795Z,41.00
2018-09-26T12:28:24.336Z,43.10
2018-09-26T12:31:28.753Z,41.70
2018-09-26T12:34:33.226Z,39.00
2018-09-26T12:37:37.824Z,40.30
2018-09-26T12:40:42.276Z,40.50
2018-09-26T12:43:46.705Z,41.20
2018-09-26T12:46:51.147Z,39.50
2018-09-26T12:49:55.650Z,39.50
2018-09-26T12:53:00.088Z,39.60
2018-09-26T12:56:04.511Z,41.60
2018-09-26T12:59:08.975Z,40.50
2018-09-26T13:02:13.488Z,40.40
2018-09-26T13:05:17.867Z,39.80
2018-09-26T13:08:22.392Z,40.20
2018-09-26T13:11:26.759Z,39.10
2018-09-26T13:14:31.210Z,39.40
2018-09-26T13:17:35.654Z,38.60
2018-09-26T13:20:40.083Z,38.60
2018-09-26T13:23:44.527Z,39.70
2018-09-26T13:26:48.938Z,38.40
2018-09-26T13:29:53.376Z,40.00
2018-09-26T13:32:57.822Z,39.50
2018-09-26T13:36:02.243Z,39.60
2018-09-26T13:39:08.565Z,39.00
2018-09-26T13:42:13.061Z,39.70
2018-09-26T13:45:17.431Z,38.50
2018-09-26T13:48:21.974Z,36.80
2018-09-26T13:51:26.367Z,35.90
2018-09-26T13:54:30.926Z,35.90
2018-09-26T13:57:35.323Z,35.30
2018-09-26T14:00:39.758Z,36.60
2018-09-26T14:03:44.207Z,38.10
2018-09-26T14:06:48.658Z,36.50
2018-09-26T14:09:53.099Z,37.70
2018-09-26T14:12:57.542Z,37.20
2018-09-26T14:16:01.965Z,37.50
2018-09-26T14:19:06.482Z,37.50
2018-09-26T14:22:11.021Z,39.00
2018-09-26T14:25:15.751Z,40.30
2018-09-26T14:28:20.399Z,39.40
2018-09-26T14:31:24.961Z,39.80
2018-09-26T14:34:29.532Z,40.50
2018-09-26T14:37:34.058Z,39.20
2018-09-26T14:40:38.634Z,40.80
2018-09-26T14:43:43.160Z,41.40
2018-09-26T14:46:47.678Z,41.60
2018-09-26T14:49:52.211Z,40.90
2018-09-26T14:52:56.800Z,42.10
2018-09-26T14:56:01.362Z,41.60
2018-09-26T14:59:06.224Z,41.90
2018-09-26T15:02:10.750Z,42.60
2018-09-26T15:05:15.378Z,42.00
2018-09-26T15:08:19.919Z,43.30
2018-09-26T15:11:24.461Z,45.50
2018-09-26T15:14:29.611Z,43.50
2018-09-26T15:17:34.178Z,46.90
2018-09-26T15:20:38.807Z,43.50
2018-09-26T15:23:43.350Z,46.30
2018-09-26T15:26:47.882Z,46.80
2018-09-26T15:29:52.438Z,47.00
2018-09-26T15:32:56.946Z,46.70
2018-09-26T15:36:01.479Z,46.40
2018-09-26T15:39:09.782Z,45.60
2018-09-26T15:42:14.433Z,46.40
2018-09-26T15:45:18.953Z,46.30
2018-09-26T15:48:23.567Z,46.80
2018-09-26T15:51:28.106Z,47.00
2018-09-26T15:54:32.687Z,48.80
2018-09-26T15:57:37.328Z,50.80
2018-09-26T16:00:41.904Z,50.40
2018-09-26T16:04:08.587Z,52.30
2018-09-26T16:07:13.011Z,55.00
2018-09-26T16:10:17.564Z,55.90
2018-09-26T16:13:21.927Z,56.60
2018-09-26T16:16:26.375Z,57.60
2018-09-26T16:19:30.835Z,59.30
2018-09-26T16:22:35.277Z,60.20
2018-09-26T16:25:39.852Z,59.50
2018-09-26T16:28:44.257Z,60.60
2018-09-26T16:31:48.817Z,60.40
2018-09-26T16:34:53.149Z,61.00
2018-09-26T16:37:57.592Z,62.40
2018-09-26T16:41:02.057Z,63.20
2018-09-26T16:44:06.732Z,63.90
2018-09-26T16:47:11.118Z,65.10
2018-09-26T16:50:15.642Z,65.30
2018-09-26T16:53:20.434Z,66.60
2018-09-26T16:56:24.965Z,66.40
2018-09-26T16:59:29.330Z,66.90
2018-09-26T17:02:33.775Z,67.40
2018-09-26T17:05:38.402Z,68.70
2018-09-26T17:08:42.850Z,69.90
2018-09-26T17:11:47.303Z,69.30
2018-09-26T17:14:51.722Z,70.20
2018-09-26T17:17:56.159Z,70.40
2018-09-26T17:21:01.183Z,72.00
2018-09-26T17:24:05.622Z,72.10
2018-09-26T17:27:10.089Z,71.80
2018-09-26T17:30:14.796Z,72.70
2018-09-26T17:33:20.152Z,74.00
2018-09-26T17:36:24.931Z,74.10
2018-09-26T17:39:36.227Z,74.20
2018-09-26T17:42:40.698Z,75.40
2018-09-26T17:45:45.123Z,76.10
2018-09-26T17:48:49.563Z,76.30
2018-09-26T17:51:54.023Z,77.90
2018-09-26T17:54:58.434Z,76.60
2018-09-26T17:58:02.874Z,77.20
2018-09-26T18:01:07.370Z,77.40
2018-09-26T18:04:12.088Z,77.80
2018-09-26T18:07:16.581Z,79.20
2018-09-26T18:10:21.007Z,78.40
2018-09-26T18:13:25.464Z,79.40
2018-09-26T18:16:29.965Z,79.90
2018-09-26T18:19:34.858Z,79.90
2018-09-26T18:22:39.322Z,80.80
2018-09-26T18:25:43.959Z,80.00
2018-09-26T18:28:48.478Z,81.30
2018-09-26T18:31:52.954Z,81.50
2018-09-26T18:34:57.379Z,80.90
2018-09-26T18:38:01.824Z,80.20
2018-09-26T18:41:06.284Z,80.60
2018-09-26T18:44:10.808Z,81.40
2018-09-26T18:47:15.370Z,81.20
2018-09-26T18:50:19.806Z,81.90
2018-09-26T18:53:24.319Z,82.20
2018-09-26T18:56:28.710Z,82.00
2018-09-26T18:59:33.186Z,81.90
2018-09-26T19:02:37.625Z,82.10
2018-09-26T19:05:42.062Z,82.70
2018-09-26T19:08:47.181Z,82.20
2018-09-26T19:11:51.586Z,82.40
2018-09-26T19:14:56.214Z,82.50
2018-09-26T19:18:00.735Z,83.80
2018-09-26T19:21:05.278Z,84.80
2018-09-26T19:24:09.701Z,84.20
2018-09-26T19:27:14.165Z,84.20
2018-09-26T19:30:18.705Z,84.80
2018-09-26T19:33:23.142Z,85.60
2018-09-26T19:36:27.592Z,85.70
2018-09-26T19:39:32.059Z,85.40
2018-09-26T19:42:36.502Z,86.40
2018-09-26T19:45:41.124Z,85.60
2018-09-26T19:48:45.575Z,86.30
2018-09-26T19:51:50.015Z,86.20
2018-09-26T19:54:54.459Z,86.20
2018-09-26T19:57:58.874Z,86.50
2018-09-26T20:01:03.373Z,86.20
2018-09-26T20:04:07.932Z,86.10
2018-09-26T20:07:12.366Z,86.30
2018-09-26T20:10:16.876Z,86.50
2018-09-26T20:13:21.272Z,87.20
2018-09-26T20:16:25.743Z,87.70
2018-09-26T20:19:30.182Z,87.90
2018-09-26T20:22:34.609Z,87.80
2018-09-26T20:25:39.186Z,87.50
2018-09-26T20:28:43.622Z,87.50
2018-09-26T20:31:48.083Z,87.90
2018-09-26T20:34:52.567Z,87.90
2018-09-26T20:37:56.987Z,88.00
2018-09-26T20:41:01.494Z,88.50
2018-09-26T20:44:06.064Z,88.20
2018-09-26T20:47:10.507Z,88.20
2018-09-26T20:50:14.962Z,88.60
2018-09-26T20:53:19.394Z,88.50
2018-09-26T20:56:23.850Z,88.80
2018-09-26T20:59:28.267Z,88.80
2018-09-26T21:02:32.690Z,89.10
2018-09-26T21:05:37.111Z,89.10
2018-09-26T21:08:41.533Z,88.90
2018-09-26T21:11:46.070Z,89.30
2018-09-26T21:14:50.514Z,89.60
2018-09-26T21:17:55.045Z,89.60
2018-09-26T21:20:59.448Z,89.60
2018-09-26T21:24:03.935Z,89.40
2018-09-26T21:27:08.377Z,89.20
2018-09-26T21:30:12.790Z,89.60
2018-09-26T21:33:17.239Z,89.60
2018-09-26T21:36:21.799Z,90.00
2018-09-26T21:39:26.226Z,90.00
2018-09-26T21:42:30.855Z,90.00
2018-09-26T21:45:35.279Z,90.00
2018-09-26T21:48:39.719Z,89.80
2018-09-26T21:51:44.150Z,90.20
2018-09-26T21:54:48.681Z,90.10
2018-09-26T21:57:53.128Z,90.10
2018-09-26T22:01:04.548Z,90.20
2018-09-26T22:04:09.085Z,90.10
2018-09-26T22:07:13.612Z,90.10
2018-09-26T22:10:18.047Z,90.20
2018-09-26T22:13:22.978Z,90.40
2018-09-26T22:16:27.463Z,90.40
2018-09-26T22:19:31.885Z,90.30
2018-09-26T22:22:36.683Z,90.10
2018-09-26T22:25:41.094Z,90.20
2018-09-26T22:28:45.522Z,90.20
2018-09-26T22:31:49.959Z,90.20
2018-09-26T22:34:54.376Z,90.60
2018-09-26T22:37:58.821Z,90.50
2018-09-26T22:41:03.350Z,90.60
2018-09-26T22:44:08.083Z,90.50
2018-09-26T22:47:12.515Z,90.60
2018-09-26T22:50:17.008Z,90.70
2018-09-26T22:53:21.450Z,90.70
2018-09-26T22:56:25.850Z,90.70
2018-09-26T22:59:30.276Z,90.60
2018-09-26T23:02:34.690Z,90.70
2018-09-26T23:05:39.102Z,90.60
2018-09-26T23:08:43.518Z,90.70
2018-09-26T23:11:47.926Z,90.80
2018-09-26T23:14:52.350Z,90.90
2018-09-26T23:17:56.793Z,91.10
2018-09-26T23:21:01.198Z,90.80
2018-09-26T23:24:05.634Z,90.70
2018-09-26T23:27:10.093Z,90.80
2018-09-26T23:30:14.740Z,90.60
2018-09-26T23:33:19.174Z,90.60
2018-09-26T23:36:23.834Z,91.00
2018-09-26T23:39:28.250Z,90.90
2018-09-26T23:42:32.718Z,90.80
2018-09-26T23:45:37.148Z,90.80
2018-09-26T23:48:41.583Z,90.90
2018-09-26T23:51:46.071Z,91.10
2018-09-26T23:54:50.546Z,90.90
2018-09-26T23:57:54.973Z,91.10
